createdAt,value
2022-12-13T00:00:35.915Z,6.40
2022-12-13T00:03:03.030Z,6.90
2022-12-13T00:05:30.187Z,6.78
2022-12-13T00:07:57.324Z,5.78
2022-12-13T00:10:24.509Z,5.85
2022-12-13T00:12:51.780Z,5.85
2022-12-13T00:15:18.986Z,5.15
2022-12-13T00:17:46.235Z,6.60
2022-12-13T00:20:13.431Z,5.03
2022-12-13T00:22:40.557Z,5.82
2022-12-13T00:25:08.120Z,7.63
2022-12-13T00:27:35.247Z,5.57
2022-12-13T00:30:02.385Z,5.40
2022-12-13T00:32:29.527Z,4.75
2022-12-13T00:34:56.683Z,5.35
2022-12-13T00:37:23.845Z,4.93
2022-12-13T00:39:50.960Z,5.63
2022-12-13T00:42:18.077Z,6.50
2022-12-13T00:44:45.195Z,5.55
2022-12-13T00:47:12.326Z,6.63
2022-12-13T00:49:39.530Z,7.03
2022-12-13T00:52:06.650Z,6.00
2022-12-13T00:54:33.928Z,4.95
2022-12-13T00:57:01.042Z,4.38
2022-12-13T00:59:28.186Z,4.85
2022-12-13T01:01:55.476Z,4.95
2022-12-13T01:04:22.625Z,4.80
2022-12-13T01:06:51.275Z,4.25
2022-12-13T01:09:22.906Z,5.22
2022-12-13T01:11:50.763Z,4.63
2022-12-13T01:14:18.501Z,4.30
2022-12-13T01:16:45.798Z,6.63
2022-12-13T01:19:13.030Z,3.88
2022-12-13T01:21:40.235Z,3.92
2022-12-13T01:24:07.712Z,4.53
2022-12-13T01:26:34.922Z,4.68
2022-12-13T01:29:27.854Z,3.58
2022-12-13T01:31:55.509Z,5.22
2022-12-13T01:34:26.386Z,4.13
2022-12-13T01:36:57.960Z,4.55
2022-12-13T01:39:26.320Z,4.05
2022-12-13T01:41:59.860Z,5.13
2022-12-13T01:44:45.876Z,3.88
2022-12-13T01:47:14.144Z,4.13
2022-12-13T01:49:41.730Z,4.40
2022-12-13T01:52:09.931Z,5.05
2022-12-13T01:54:39.124Z,5.15
2022-12-13T01:57:15.970Z,3.50
2022-12-13T01:59:43.795Z,5.25
2022-12-13T02:02:13.261Z,4.07
2022-12-13T02:04:45.200Z,3.92
2022-12-13T02:07:22.544Z,6.80
2022-12-13T02:09:56.459Z,4.82
2022-12-13T02:12:24.903Z,3.90
2022-12-13T02:14:57.726Z,5.57
2022-12-13T02:17:46.810Z,4.45
2022-12-13T02:20:28.511Z,5.28
2022-12-13T02:23:01.875Z,3.83
2022-12-13T02:25:51.398Z,4.13
2022-12-13T02:28:44.343Z,3.60
2022-12-13T02:31:19.067Z,3.70
2022-12-13T02:33:48.995Z,4.43
2022-12-13T02:36:16.111Z,5.20
2022-12-13T02:39:01.951Z,4.53
2022-12-13T02:41:41.400Z,4.90
2022-12-13T02:44:21.781Z,3.70
2022-12-13T02:46:55.802Z,3.67
2022-12-13T02:49:24.594Z,3.30
2022-12-13T02:51:52.706Z,3.88
2022-12-13T02:54:19.926Z,3.42
2022-12-13T02:57:00.158Z,4.05
2022-12-13T02:59:31.974Z,6.45
2022-12-13T03:02:30.781Z,3.60
2022-12-13T03:05:20.515Z,4.70
2022-12-13T03:07:50.454Z,3.85
2022-12-13T03:10:21.892Z,6.63
2022-12-13T03:13:16.550Z,5.38
2022-12-13T03:15:46.215Z,6.20
2022-12-13T03:18:15.924Z,3.90
2022-12-13T03:20:50.631Z,5.07
2022-12-13T03:23:18.950Z,3.65
2022-12-13T03:25:47.465Z,3.75
2022-12-13T03:28:14.654Z,4.35
2022-12-13T03:30:41.748Z,3.72
2022-12-13T03:33:08.902Z,4.45
2022-12-13T03:35:43.889Z,3.72
2022-12-13T03:38:12.322Z,3.50
2022-12-13T03:40:48.478Z,3.67
2022-12-13T03:43:15.687Z,4.15
2022-12-13T03:45:49.679Z,4.30
2022-12-13T03:48:22.171Z,7.65
2022-12-13T03:50:51.078Z,4.03
2022-12-13T03:53:23.393Z,3.72
2022-12-13T03:56:01.830Z,3.60
2022-12-13T03:58:36.954Z,4.80
2022-12-13T04:01:05.940Z,3.97
2022-12-13T04:03:33.065Z,3.92
2022-12-13T04:06:00.238Z,9.77
2022-12-13T04:08:27.436Z,4.55
2022-12-13T04:10:54.626Z,3.85
2022-12-13T04:13:34.110Z,5.72
2022-12-13T04:16:01.929Z,4.25
2022-12-13T04:18:29.184Z,3.40
2022-12-13T04:20:57.511Z,3.95
2022-12-13T04:23:24.792Z,4.35
2022-12-13T04:25:52.139Z,2.90
2022-12-13T04:28:21.654Z,3.53
2022-12-13T04:30:52.985Z,3.38
2022-12-13T04:33:21.303Z,4.15
2022-12-13T04:35:48.910Z,5.20
2022-12-13T04:38:16.233Z,3.85
2022-12-13T04:40:43.399Z,3.65
2022-12-13T04:43:10.581Z,4.22
2022-12-13T04:45:38.023Z,4.35
2022-12-13T04:48:05.459Z,5.63
2022-12-13T04:50:32.653Z,3.88
2022-12-13T04:52:59.818Z,4.97
2022-12-13T04:55:26.942Z,3.55
2022-12-13T04:57:54.077Z,4.20
2022-12-13T05:00:23.028Z,3.90
2022-12-13T05:02:50.303Z,5.07
2022-12-13T05:05:18.043Z,3.92
2022-12-13T05:07:45.481Z,3.95
2022-12-13T05:10:14.014Z,3.63
2022-12-13T05:13:00.239Z,3.78
2022-12-13T05:15:28.253Z,3.70
2022-12-13T05:17:55.532Z,3.50
2022-12-13T05:20:22.668Z,8.35
2022-12-13T05:22:49.765Z,6.03
2022-12-13T05:25:17.233Z,7.35
2022-12-13T05:27:44.505Z,3.80
2022-12-13T05:30:12.008Z,3.90
2022-12-13T05:32:42.772Z,4.10
2022-12-13T05:35:11.606Z,5.75
2022-12-13T05:37:38.744Z,3.60
2022-12-13T05:40:06.200Z,4.47
2022-12-13T05:42:33.336Z,3.60
2022-12-13T05:45:00.507Z,5.05
2022-12-13T05:47:27.621Z,3.55
2022-12-13T05:49:54.791Z,4.38
2022-12-13T05:52:30.433Z,3.58
2022-12-13T05:55:13.274Z,3.50
2022-12-13T05:57:40.853Z,5.40
2022-12-13T06:00:30.106Z,3.50
2022-12-13T06:02:57.043Z,3.83
2022-12-13T06:05:28.289Z,6.25
2022-12-13T06:07:57.486Z,4.40
2022-12-13T06:10:35.204Z,5.78
2022-12-13T06:13:21.091Z,4.65
2022-12-13T06:15:50.693Z,23.20
2022-12-13T06:18:17.994Z,7.53
2022-12-13T06:20:46.399Z,7.53
2022-12-13T06:23:13.636Z,8.55
2022-12-13T06:25:40.829Z,9.77
2022-12-13T06:28:07.995Z,6.70
2022-12-13T06:30:35.216Z,10.48
2022-12-13T06:33:10.948Z,5.93
2022-12-13T06:35:41.505Z,5.93
2022-12-13T06:38:11.927Z,6.35
2022-12-13T06:40:39.383Z,6.90
2022-12-13T06:43:06.599Z,7.43
2022-12-13T06:45:33.745Z,8.82
2022-12-13T06:48:00.884Z,7.70
2022-12-13T06:50:27.984Z,15.13
2022-12-13T06:52:55.142Z,9.68
2022-12-13T06:55:24.131Z,7.97
2022-12-13T06:57:51.792Z,7.07
2022-12-13T07:00:22.702Z,7.25
2022-12-13T07:02:54.948Z,7.35
2022-12-13T07:05:22.547Z,5.40
2022-12-13T07:07:50.217Z,9.13
2022-12-13T07:10:21.988Z,6.03
2022-12-13T07:12:50.413Z,7.43
2022-12-13T07:15:17.717Z,8.10
2022-12-13T07:17:44.847Z,6.95
2022-12-13T07:20:13.623Z,9.75
2022-12-13T07:22:47.333Z,8.35
2022-12-13T07:25:28.490Z,7.57
2022-12-13T07:28:04.409Z,6.95
2022-12-13T07:30:34.449Z,7.90
2022-12-13T07:33:08.957Z,13.95
2022-12-13T07:35:36.854Z,11.98
2022-12-13T07:38:05.419Z,12.00
2022-12-13T07:40:34.267Z,17.92
2022-12-13T07:43:01.732Z,16.50
2022-12-13T07:45:29.051Z,13.43
2022-12-13T07:47:56.238Z,15.93
2022-12-13T07:50:25.660Z,12.32
2022-12-13T07:52:53.562Z,13.57
2022-12-13T07:55:22.999Z,17.33
2022-12-13T07:58:14.237Z,14.98
2022-12-13T08:00:46.123Z,12.13
2022-12-13T08:03:18.330Z,13.55
2022-12-13T08:06:22.348Z,26.08
2022-12-13T08:08:51.117Z,9.82
2022-12-13T08:11:18.478Z,11.32
2022-12-13T08:13:45.704Z,10.77
2022-12-13T08:16:27.240Z,10.30
2022-12-13T08:19:03.061Z,10.05
2022-12-13T08:24:22.164Z,15.20
2022-12-13T08:26:49.301Z,12.73
2022-12-13T08:29:23.052Z,13.25
2022-12-13T08:32:01.632Z,14.10
2022-12-13T08:34:29.258Z,11.05
2022-12-13T08:37:02.945Z,12.20
2022-12-13T08:39:35.916Z,13.27
2022-12-13T08:42:17.078Z,11.80
2022-12-13T08:44:53.008Z,12.23
2022-12-13T08:47:23.817Z,13.90
2022-12-13T08:49:52.297Z,11.68
2022-12-13T08:52:19.562Z,14.82
2022-12-13T08:54:46.804Z,12.73
2022-12-13T08:57:13.983Z,19.17
2022-12-13T08:59:41.146Z,10.60
2022-12-13T09:02:10.703Z,14.73
2022-12-13T09:04:37.890Z,12.38
2022-12-13T09:07:04.996Z,14.07
2022-12-13T09:09:32.203Z,10.95
2022-12-13T09:12:00.139Z,12.85
2022-12-13T09:14:34.012Z,12.68
2022-12-13T09:17:03.663Z,11.10
2022-12-13T09:19:37.474Z,13.23
2022-12-13T09:22:05.123Z,11.35
2022-12-13T09:24:36.102Z,10.90
2022-12-13T09:27:09.124Z,13.20
2022-12-13T09:29:37.588Z,11.05
2022-12-13T09:32:04.994Z,15.35
2022-12-13T09:34:35.438Z,13.60
2022-12-13T09:37:02.649Z,12.90
2022-12-13T09:39:30.058Z,12.02
2022-12-13T09:42:00.993Z,9.40
2022-12-13T09:44:31.633Z,10.25
2022-12-13T09:47:02.005Z,10.45
2022-12-13T09:49:35.151Z,14.25
2022-12-13T09:52:10.569Z,14.32
2022-12-13T09:54:47.819Z,12.15
2022-12-13T09:57:32.947Z,11.55
2022-12-13T10:00:06.279Z,9.57
2022-12-13T10:02:34.430Z,10.48
2022-12-13T10:05:22.498Z,10.85
2022-12-13T10:07:52.111Z,11.38
2022-12-13T10:10:19.389Z,13.05
2022-12-13T10:12:49.587Z,11.23
2022-12-13T10:15:22.089Z,11.18
2022-12-13T10:17:55.280Z,11.30
2022-12-13T10:20:26.134Z,11.00
2022-12-13T10:23:30.028Z,11.63
2022-12-13T10:26:02.775Z,11.55
2022-12-13T10:28:33.193Z,10.85
2022-12-13T10:31:01.486Z,11.48
2022-12-13T10:33:31.173Z,12.18
2022-12-13T10:36:04.156Z,11.48
2022-12-13T10:38:32.595Z,12.25
2022-12-13T10:41:01.268Z,12.35
2022-12-13T10:43:30.674Z,12.40
2022-12-13T10:45:58.079Z,11.45
2022-12-13T10:48:39.042Z,13.68
2022-12-13T10:51:07.746Z,15.25
2022-12-13T10:53:37.000Z,21.05
2022-12-13T10:56:04.760Z,11.30
2022-12-13T10:58:40.168Z,14.88
2022-12-13T11:01:20.628Z,15.40
2022-12-13T11:03:56.990Z,12.10
2022-12-13T11:06:43.465Z,12.50
2022-12-13T11:09:23.011Z,13.20
2022-12-13T11:11:57.994Z,13.98
2022-12-13T11:14:31.856Z,13.25
2022-12-13T11:17:01.596Z,12.27
2022-12-13T11:19:38.527Z,24.23
2022-12-13T11:22:06.195Z,89.63
2022-12-13T11:24:35.026Z,260.15
2022-12-13T11:27:20.591Z,165.27
2022-12-13T11:29:47.775Z,163.23
2022-12-13T11:32:30.210Z,153.10
2022-12-13T11:34:57.333Z,144.13
2022-12-13T11:37:24.486Z,150.98
2022-12-13T11:40:04.656Z,139.88
2022-12-13T11:42:46.597Z,147.60
2022-12-13T11:45:22.603Z,125.57
2022-12-13T11:47:50.598Z,123.43
2022-12-13T11:50:34.719Z,110.03
2022-12-13T11:53:15.176Z,106.90
2022-12-13T11:55:45.497Z,107.32
2022-12-13T12:01:27.625Z,95.18
2022-12-13T12:04:00.241Z,103.30
2022-12-13T12:06:29.508Z,94.90
2022-12-13T12:09:05.099Z,94.85
2022-12-13T12:11:40.429Z,85.28
2022-12-13T12:14:17.311Z,82.70
2022-12-13T12:16:44.445Z,94.55
2022-12-13T12:19:15.745Z,92.63
2022-12-13T12:24:51.620Z,76.00
2022-12-13T12:27:33.980Z,81.20
2022-12-13T12:30:12.148Z,81.13
2022-12-13T12:32:41.279Z,82.45
2022-12-13T12:35:26.740Z,77.20
2022-12-13T12:38:00.002Z,67.43
2022-12-13T12:41:07.179Z,71.60
2022-12-13T12:43:21.837Z,71.13
2022-12-13T12:45:59.701Z,73.03
2022-12-13T12:49:01.896Z,66.25
2022-12-13T12:51:33.567Z,67.70
2022-12-13T12:54:00.727Z,59.53
2022-12-13T12:56:30.625Z,57.80
2022-12-13T12:58:57.826Z,62.40
2022-12-13T13:01:43.484Z,62.15
2022-12-13T13:04:12.582Z,58.35
2022-12-13T13:06:45.273Z,52.50
2022-12-13T13:09:14.292Z,62.20
2022-12-13T13:11:43.376Z,54.13
2022-12-13T13:14:29.982Z,55.45
2022-12-13T13:16:57.917Z,60.42
2022-12-13T13:19:34.376Z,52.38
2022-12-13T13:22:02.595Z,54.33
2022-12-13T13:24:30.132Z,50.15
2022-12-13T13:26:58.315Z,43.33
2022-12-13T13:29:28.654Z,48.33
2022-12-13T13:32:01.123Z,53.20
2022-12-13T13:34:36.602Z,46.72
2022-12-13T13:37:04.724Z,50.55
2022-12-13T13:39:31.895Z,47.13
2022-12-13T13:42:14.314Z,47.97
2022-12-13T13:44:47.249Z,47.10
2022-12-13T13:47:20.432Z,49.08
2022-12-13T13:50:02.137Z,45.80
2022-12-13T13:52:44.809Z,48.22
2022-12-13T13:55:30.770Z,40.97
2022-12-13T13:58:10.061Z,36.38
2022-12-13T14:00:56.801Z,43.65
2022-12-13T14:03:43.478Z,41.45
2022-12-13T14:06:12.581Z,42.45
2022-12-13T14:08:40.429Z,41.85
2022-12-13T14:11:41.556Z,45.45
2022-12-13T14:14:27.761Z,46.67
2022-12-13T14:17:01.198Z,42.38
2022-12-13T14:19:28.614Z,33.38
2022-12-13T14:22:14.455Z,41.38
2022-12-13T14:24:50.844Z,38.92
2022-12-13T14:27:18.055Z,36.45
2022-12-13T14:29:48.217Z,39.33
2022-12-13T14:32:43.401Z,36.30
2022-12-13T14:35:25.760Z,39.88
2022-12-13T14:38:17.174Z,38.17
2022-12-13T14:40:51.383Z,34.75
2022-12-13T14:43:24.446Z,38.15
2022-12-13T14:45:59.325Z,34.53
2022-12-13T14:48:28.392Z,37.00
2022-12-13T14:50:56.338Z,36.95
2022-12-13T14:53:32.901Z,30.40
2022-12-13T14:56:06.259Z,37.15
2022-12-13T14:58:33.712Z,30.80
2022-12-13T15:01:00.883Z,34.05
2022-12-13T15:03:28.937Z,35.17
2022-12-13T15:05:58.015Z,28.23
2022-12-13T15:08:25.692Z,30.13
2022-12-13T15:10:57.428Z,32.17
2022-12-13T15:13:29.593Z,33.63
2022-12-13T15:16:01.948Z,28.05
2022-12-13T15:18:38.378Z,27.45
2022-12-13T15:21:18.288Z,32.38
2022-12-13T15:23:48.732Z,28.67
2022-12-13T15:26:28.897Z,30.65
2022-12-13T15:29:09.470Z,32.28
2022-12-13T15:31:37.957Z,30.70
2022-12-13T15:34:28.873Z,29.48
2022-12-13T15:36:58.475Z,23.95
2022-12-13T15:39:26.025Z,27.38
2022-12-13T15:41:55.308Z,28.02
2022-12-13T15:44:38.845Z,27.45
2022-12-13T15:47:10.438Z,26.15
2022-12-13T15:49:40.648Z,30.00
2022-12-13T15:52:24.472Z,28.67
2022-12-13T15:54:57.821Z,28.17
2022-12-13T15:57:26.624Z,24.60
2022-12-13T16:00:08.490Z,24.02
2022-12-13T16:02:36.137Z,26.33
2022-12-13T16:05:07.278Z,25.00
2022-12-13T16:07:39.858Z,30.45
2022-12-13T16:10:08.874Z,31.25
2022-12-13T16:12:47.610Z,26.55
2022-12-13T16:15:35.460Z,24.10
2022-12-13T16:18:07.560Z,27.02
2022-12-13T16:20:35.185Z,23.38
2022-12-13T16:23:08.869Z,26.63
2022-12-13T16:25:36.485Z,24.40
2022-12-13T16:28:03.863Z,24.63
2022-12-13T16:30:49.633Z,23.85
2022-12-13T16:33:26.795Z,27.23
2022-12-13T16:35:55.623Z,25.17
2022-12-13T16:38:26.695Z,24.33
2022-12-13T16:40:55.331Z,25.17
2022-12-13T16:43:31.309Z,26.42
2022-12-13T16:47:17.185Z,25.10
2022-12-13T16:48:51.007Z,23.08
2022-12-13T16:51:18.769Z,22.98
2022-12-13T16:53:47.237Z,20.90
2022-12-13T16:56:16.201Z,25.15
2022-12-13T16:58:49.719Z,23.23
2022-12-13T17:01:20.020Z,23.30
2022-12-13T17:03:47.491Z,20.35
2022-12-13T17:06:15.354Z,18.58
2022-12-13T17:08:42.543Z,22.67
2022-12-13T17:11:14.577Z,18.45
2022-12-13T17:13:44.826Z,20.48
2022-12-13T17:16:12.097Z,21.08
2022-12-13T17:18:41.696Z,18.80
2022-12-13T17:21:09.330Z,26.90
2022-12-13T17:23:36.989Z,25.90
2022-12-13T17:26:08.033Z,24.00
2022-12-13T17:28:37.418Z,29.02
2022-12-13T17:31:13.704Z,22.73
2022-12-13T17:33:41.327Z,23.85
2022-12-13T17:36:09.432Z,23.13
2022-12-13T17:38:36.920Z,22.20
2022-12-13T17:41:04.578Z,23.98
2022-12-13T17:43:35.747Z,21.40
2022-12-13T17:46:03.416Z,22.10
2022-12-13T17:48:35.762Z,22.52
2022-12-13T17:51:08.241Z,23.60
2022-12-13T17:53:36.222Z,21.98
2022-12-13T17:56:06.550Z,23.27
2022-12-13T17:58:34.113Z,22.10
2022-12-13T18:01:10.180Z,22.00
2022-12-13T18:03:38.272Z,24.17
2022-12-13T18:06:07.065Z,20.42
2022-12-13T18:08:35.881Z,20.48
2022-12-13T18:11:31.230Z,24.45
2022-12-13T18:13:54.989Z,23.63
2022-12-13T18:16:23.301Z,21.80
2022-12-13T18:18:55.002Z,19.40
2022-12-13T18:21:22.846Z,26.10
2022-12-13T18:23:55.140Z,19.77
2022-12-13T18:26:22.752Z,22.10
2022-12-13T18:28:49.914Z,17.83
2022-12-13T18:31:22.272Z,16.90
2022-12-13T18:33:52.000Z,18.98
2022-12-13T18:36:20.208Z,17.45
2022-12-13T18:38:50.254Z,21.98
2022-12-13T18:41:22.159Z,22.90
2022-12-13T18:43:49.455Z,20.00
2022-12-13T18:46:17.521Z,18.20
2022-12-13T18:48:44.753Z,21.05
2022-12-13T18:51:11.998Z,19.58
2022-12-13T18:53:40.324Z,32.08
2022-12-13T18:56:14.365Z,23.92
2022-12-13T18:58:45.448Z,20.67
2022-12-13T19:01:13.159Z,19.13
2022-12-13T19:03:40.709Z,27.98
2022-12-13T19:06:08.386Z,30.95
2022-12-13T19:08:36.592Z,22.83
2022-12-13T19:11:04.486Z,24.15
2022-12-13T19:13:33.112Z,25.38
2022-12-13T19:16:08.287Z,22.98
2022-12-13T19:18:35.767Z,25.02
2022-12-13T19:21:02.903Z,21.27
2022-12-13T19:23:30.451Z,18.25
2022-12-13T19:25:57.761Z,29.75
2022-12-13T19:28:24.871Z,32.80
2022-12-13T19:30:52.048Z,23.25
2022-12-13T19:33:19.279Z,26.05
2022-12-13T19:35:47.206Z,32.38
2022-12-13T19:38:14.620Z,30.08
2022-12-13T19:40:42.849Z,22.48
2022-12-13T19:43:11.361Z,31.80
2022-12-13T19:45:38.913Z,28.63
2022-12-13T19:48:06.166Z,28.83
2022-12-13T19:50:33.343Z,23.05
2022-12-13T19:53:00.617Z,25.45
2022-12-13T19:55:28.186Z,22.83
2022-12-13T19:57:55.308Z,25.63
2022-12-13T20:00:22.892Z,22.10
2022-12-13T20:02:50.796Z,25.48
2022-12-13T20:05:18.159Z,23.75
2022-12-13T20:07:45.278Z,24.23
2022-12-13T20:10:12.762Z,27.10
2022-12-13T20:12:41.140Z,23.10
2022-12-13T20:15:08.838Z,24.65
2022-12-13T20:17:36.291Z,24.83
2022-12-13T20:20:04.081Z,25.40
2022-12-13T20:22:31.421Z,26.98
2022-12-13T20:24:58.626Z,23.75
2022-12-13T20:27:26.268Z,26.33
2022-12-13T20:29:53.506Z,22.80
2022-12-13T20:32:21.328Z,27.95
2022-12-13T20:34:53.236Z,26.55
2022-12-13T20:37:22.435Z,28.23
2022-12-13T20:39:50.080Z,25.52
2022-12-13T20:42:17.215Z,25.33
2022-12-13T20:44:44.990Z,26.77
2022-12-13T20:47:12.220Z,21.20
2022-12-13T20:49:40.098Z,25.40
2022-12-13T20:52:07.246Z,23.77
2022-12-13T20:54:34.376Z,18.70
2022-12-13T20:57:01.566Z,22.80
2022-12-13T20:59:28.710Z,21.70
2022-12-13T21:01:56.113Z,25.77
2022-12-13T21:04:23.280Z,25.65
2022-12-13T21:06:50.497Z,25.23
2022-12-13T21:09:18.112Z,29.20
2022-12-13T21:11:46.896Z,23.08
2022-12-13T21:14:22.177Z,23.38
2022-12-13T21:17:00.286Z,21.33
2022-12-13T21:19:37.404Z,24.02
2022-12-13T21:22:06.412Z,21.75
2022-12-13T21:24:33.597Z,24.92
2022-12-13T21:27:02.048Z,22.23
2022-12-13T21:29:29.220Z,18.67
2022-12-13T21:31:56.621Z,20.52
2022-12-13T21:34:26.688Z,21.85
2022-12-13T21:36:53.888Z,25.27
2022-12-13T21:39:27.663Z,24.95
2022-12-13T21:41:55.053Z,23.45
2022-12-13T21:44:22.286Z,21.38
2022-12-13T21:49:37.062Z,20.38
2022-12-13T21:52:04.313Z,24.42
2022-12-13T21:54:31.463Z,20.75
2022-12-13T21:57:17.540Z,21.45
2022-12-13T21:59:44.769Z,20.85
2022-12-13T22:02:13.538Z,17.38
2022-12-13T22:04:43.726Z,19.48
2022-12-13T22:07:12.137Z,21.83
2022-12-13T22:09:39.377Z,24.00
2022-12-13T22:12:07.872Z,18.92
2022-12-13T22:14:35.173Z,17.75
2022-12-13T22:17:02.378Z,19.38
2022-12-13T22:19:29.564Z,20.00
2022-12-13T22:21:56.756Z,19.23
2022-12-13T22:24:23.912Z,17.63
2022-12-13T22:26:51.096Z,20.27
2022-12-13T22:29:18.269Z,16.88
2022-12-13T22:31:49.063Z,19.38
2022-12-13T22:34:16.373Z,20.45
2022-12-13T22:36:43.534Z,21.30
2022-12-13T22:39:20.543Z,18.55
2022-12-13T22:41:48.074Z,20.38
2022-12-13T22:44:16.062Z,18.38
2022-12-13T22:46:43.672Z,20.35
2022-12-13T22:49:11.344Z,18.55
2022-12-13T22:51:38.560Z,18.15
2022-12-13T22:54:05.823Z,18.02
2022-12-13T22:56:33.099Z,18.48
2022-12-13T22:59:01.868Z,17.73
2022-12-13T23:01:32.986Z,19.98
2022-12-13T23:04:00.782Z,18.75
2022-12-13T23:06:32.224Z,19.15
2022-12-13T23:09:00.820Z,19.02
2022-12-13T23:11:47.222Z,18.10
2022-12-13T23:14:16.941Z,19.27
2022-12-13T23:16:44.508Z,17.90
2022-12-13T23:22:00.719Z,16.58
2022-12-13T23:24:27.960Z,19.35
2022-12-13T23:26:55.109Z,17.25
2022-12-13T23:29:22.505Z,18.08
2022-12-13T23:31:49.674Z,16.55
2022-12-13T23:34:17.132Z,17.45
2022-12-13T23:36:44.333Z,15.93
2022-12-13T23:39:11.616Z,16.17
2022-12-13T23:41:38.927Z,18.40
2022-12-13T23:44:06.104Z,16.23
2022-12-13T23:46:34.833Z,16.17
2022-12-13T23:49:02.683Z,16.70
2022-12-13T23:51:30.272Z,16.92
2022-12-13T23:53:57.552Z,15.70
2022-12-13T23:56:24.896Z,16.33
2022-12-13T23:58:52.177Z,15.63
